Time;durP1;ratioP1;P1;durP2;ratioP2;P2;SDS_P1;SDS_P2;PMS_P1;PMS_P2;Temp;Humidity;BMP_temperature;BMP_pressure;BME280_temperature;BME280_humidity;BME280_pressure;Samples;Min_cycle;Max_cycle;Signal;HPM_P1;HPM_P2
2021/12/10 00:01:49;;;;;;;7.97;3.42;;;;;;;5.79;91.40;98938.72;8314014;28;20034;-64
2021/12/10 00:06:03;;;;;;;10.57;3.40;;;;;;;5.80;91.04;98929.72;8325276;28;20069;-64
2021/12/10 00:10:08;;;;;;;7.20;2.90;;;;;;;5.87;90.48;98922.78;8318889;28;20116;-64
2021/12/10 00:14:11;;;;;;;4.65;3.35;;;;;;;5.82;90.68;98930.41;8308014;28;20042;-64
2021/12/10 00:18:15;;;;;;;6.13;2.97;;;;;;;5.78;90.68;98908.41;8293900;28;20080;-64
2021/12/10 00:22:28;;;;;;;8.10;3.92;;;;;;;5.56;91.95;98914.19;8292652;28;20088;-64
2021/12/10 00:26:29;;;;;;;6.28;3.42;;;;;;;5.59;91.94;98902.31;8285761;28;20069;-64
2021/12/10 00:30:33;;;;;;;8.38;3.85;;;;;;;5.46;92.18;98896.47;8296265;28;20099;-64
2021/12/10 00:34:39;;;;;;;8.80;4.32;;;;;;;5.18;94.10;98873.28;8326098;28;20087;-64
2021/12/10 00:38:41;;;;;;;9.82;3.80;;;;;;;4.96;95.39;98870.97;8303936;28;20116;-64
2021/12/10 00:42:42;;;;;;;10.50;4.25;;;;;;;4.77;96.32;98876.38;8291709;28;20083;-64
2021/12/10 00:46:43;;;;;;;7.45;4.20;;;;;;;4.71;97.20;98866.25;8293383;28;20333;-64
2021/12/10 00:50:48;;;;;;;8.40;3.97;;;;;;;4.66;97.47;98863.19;8292259;28;20048;-64
2021/12/10 00:54:50;;;;;;;10.30;5.00;;;;;;;4.55;98.36;98849.97;8293072;28;20042;-64
2021/12/10 00:58:51;;;;;;;13.00;4.63;;;;;;;4.70;98.02;98843.16;8292891;28;20044;-64
2021/12/10 01:02:51;;;;;;;12.23;4.35;;;;;;;4.79;97.90;98831.59;8314345;28;20029;-64
2021/12/10 01:06:55;;;;;;;10.35;5.50;;;;;;;4.90;97.23;98823.38;8323648;28;20041;-64
2021/12/10 01:11:05;;;;;;;5.63;4.18;;;;;;;5.00;96.26;98825.03;8330539;28;20044;-64
2021/12/10 01:23:56;;;;;;;10.55;2.13;;;;;;;5.46;91.02;98800.81;8306773;28;20121;-64
2021/12/10 01:27:57;;;;;;;11.63;2.38;;;;;;;5.51;90.97;98793.19;8300226;28;20498;-64
2021/12/10 01:31:59;;;;;;;8.93;2.90;;;;;;;5.63;90.51;98785.75;8316749;28;20440;-64
2021/12/10 01:36:06;;;;;;;11.45;2.10;;;;;;;5.59;91.04;98762.94;8324564;28;20038;-64
2021/12/10 01:40:09;;;;;;;12.75;2.80;;;;;;;5.48;91.53;98749.75;8324798;28;20056;-64
2021/12/10 01:44:16;;;;;;;7.93;2.10;;;;;;;5.50;91.11;98742.41;8324717;28;20095;-64
2021/12/10 01:48:21;;;;;;;9.23;2.00;;;;;;;5.45;90.92;98752.72;8324063;28;20442;-64
2021/12/10 01:52:23;;;;;;;12.10;2.33;;;;;;;5.42;90.56;98728.94;8309381;28;20409;-64
2021/12/10 01:56:29;;;;;;;6.40;2.10;;;;;;;5.33;91.02;98725.31;8324477;28;20030;-64
2021/12/10 02:00:32;;;;;;;9.40;2.70;;;;;;;5.24;92.05;98712.00;8316125;28;20061;-64
2021/12/10 02:04:35;;;;;;;10.10;2.60;;;;;;;5.06;93.19;98708.47;8324223;28;20041;-64
2021/12/10 02:08:37;;;;;;;10.82;2.50;;;;;;;5.00;93.36;98695.69;8324330;28;20408;-64
2021/12/10 02:12:38;;;;;;;6.97;2.30;;;;;;;4.97;93.10;98687.94;8323636;28;20041;-64
2021/12/10 02:16:40;;;;;;;11.18;2.45;;;;;;;4.97;93.50;98671.88;8324460;28;20037;-64
2021/12/10 02:21:10;;;;;;;8.90;2.92;;;;;;;4.90;93.64;98654.72;8315213;28;20041;-64
2021/12/10 02:25:12;;;;;;;11.38;2.58;;;;;;;4.92;93.50;98650.91;8302976;28;20497;-64
2021/12/10 02:29:13;;;;;;;11.38;2.70;;;;;;;4.88;93.40;98638.00;8306234;28;20249;-64
2021/12/10 02:33:16;;;;;;;11.30;2.67;;;;;;;4.91;92.99;98648.38;8315445;28;20037;-64
2021/12/10 02:37:16;;;;;;;13.38;2.67;;;;;;;4.89;92.72;98635.16;8322632;28;20037;-64
2021/12/10 02:41:19;;;;;;;17.40;2.67;;;;;;;4.96;92.30;98630.03;8315006;28;20124;-64
2021/12/10 02:45:22;;;;;;;5.88;2.17;;;;;;;4.93;92.46;98614.25;8308497;28;20038;-64
2021/12/10 02:49:23;;;;;;;7.35;2.15;;;;;;;5.01;92.16;98606.31;8291248;28;20096;-64
2021/12/10 02:53:27;;;;;;;8.88;1.88;;;;;;;5.07;91.92;98597.69;8291165;28;20037;-64
2021/12/10 02:57:28;;;;;;;10.70;1.63;;;;;;;4.96;92.35;98590.72;8290851;28;20219;-64
2021/12/10 03:01:36;;;;;;;6.57;1.83;;;;;;;4.89;92.42;98581.63;8302031;28;20091;-64
2021/12/10 03:05:36;;;;;;;11.25;1.85;;;;;;;4.88;92.76;98581.78;8323568;28;20050;-64
2021/12/10 03:09:39;;;;;;;7.95;1.30;;;;;;;4.82;92.93;98569.00;8314062;28;20045;-64
2021/12/10 03:13:40;;;;;;;9.48;1.40;;;;;;;4.75;93.36;98559.88;8309200;28;20084;-64
2021/12/10 03:17:42;;;;;;;12.50;1.88;;;;;;;4.79;92.95;98534.50;8296843;28;20038;-64
2021/12/10 03:21:44;;;;;;;4.18;1.48;;;;;;;4.87;92.94;98535.41;8296669;28;20497;-64
2021/12/10 03:25:46;;;;;;;8.18;1.55;;;;;;;5.03;91.82;98529.38;8296382;28;20073;-64
2021/12/10 03:29:47;;;;;;;11.70;1.95;;;;;;;5.05;91.45;98525.53;8295989;28;20175;-64
2021/12/10 03:33:48;;;;;;;4.85;1.20;;;;;;;5.08;91.51;98527.91;8325992;28;20033;-64
2021/12/10 03:37:49;;;;;;;11.00;1.63;;;;;;;5.17;91.78;98521.63;8328758;28;20044;-64
2021/12/10 03:41:52;;;;;;;8.70;1.48;;;;;;;5.25;91.38;98512.81;8328427;28;20030;-64
2021/12/10 03:45:54;;;;;;;10.80;2.35;;;;;;;5.36;91.42;98512.53;8333769;28;20045;-64
2021/12/10 03:49:55;;;;;;;6.63;1.38;;;;;;;5.41;90.86;98502.19;8328326;28;20034;-64
2021/12/10 03:53:57;;;;;;;14.85;1.90;;;;;;;5.48;90.83;98481.81;8328126;28;20545;-64
2021/12/10 03:57:57;;;;;;;7.00;1.30;;;;;;;5.59;89.92;98484.22;8328241;28;20037;-64
2021/12/10 04:01:58;;;;;;;8.35;1.77;;;;;;;5.68;89.43;98469.88;8317888;28;20553;-64
2021/12/10 04:05:59;;;;;;;4.80;1.10;;;;;;;5.72;89.22;98457.81;8299159;28;20038;-64
2021/12/10 04:10:00;;;;;;;8.88;2.75;;;;;;;5.74;89.12;98461.19;8295001;28;20463;-64
2021/12/10 04:14:00;;;;;;;15.23;2.05;;;;;;;5.73;89.36;98444.25;8294927;28;20109;-64
2021/12/10 04:18:01;;;;;;;8.00;1.60;;;;;;;5.70;89.11;98439.22;8294678;28;20038;-64
2021/12/10 04:22:05;;;;;;;13.10;1.95;;;;;;;5.70;88.99;98438.38;8294805;28;20258;-64
2021/12/10 04:26:06;;;;;;;10.70;1.70;;;;;;;5.70;88.81;98422.28;8294546;28;20041;-64
2021/12/10 04:30:10;;;;;;;12.50;1.70;;;;;;;5.66;89.36;98410.22;8297734;28;20041;-64
2021/12/10 04:34:10;;;;;;;5.45;1.30;;;;;;;5.51;90.26;98410.00;8310483;28;20517;-64
2021/12/10 04:38:11;;;;;;;13.48;1.75;;;;;;;5.43;90.45;98396.56;8323578;28;20450;-64
2021/12/10 04:42:22;;;;;;;7.72;1.70;;;;;;;5.36;90.96;98386.63;8310160;28;20042;-64
2021/12/10 04:46:23;;;;;;;11.38;1.60;;;;;;;5.40;90.24;98386.16;8315041;28;20116;-64
2021/12/10 04:50:27;;;;;;;13.60;1.52;;;;;;;5.25;90.98;98382.41;8293868;28;20038;-64
2021/12/10 04:54:28;;;;;;;10.90;1.33;;;;;;;5.25;91.28;98376.22;8305108;28;20029;-64
2021/12/10 04:58:29;;;;;;;6.85;1.30;;;;;;;5.14;91.84;98365.78;8322855;28;20037;-64
2021/12/10 05:02:29;;;;;;;8.13;1.70;;;;;;;5.13;92.13;98364.09;8315868;28;20056;-64
2021/12/10 05:06:30;;;;;;;4.60;1.55;;;;;;;5.22;90.36;98357.78;8312741;28;20413;-64
2021/12/10 05:10:32;;;;;;;5.57;1.58;;;;;;;5.34;89.06;98346.63;8315857;28;20088;-64
2021/12/10 05:14:33;;;;;;;14.95;2.00;;;;;;;5.15;89.82;98337.97;8301757;28;20056;-64
2021/12/10 05:18:37;;;;;;;7.13;1.73;;;;;;;5.07;90.37;98335.28;8297168;28;20060;-64
2021/12/10 05:22:41;;;;;;;9.98;1.75;;;;;;;5.03;90.74;98325.91;8289933;28;20029;-64
2021/12/10 05:26:42;;;;;;;7.85;1.65;;;;;;;4.94;91.54;98316.16;8296573;28;20414;-64
2021/12/10 05:30:45;;;;;;;7.72;1.80;;;;;;;4.77;92.40;98314.38;8312245;28;20049;-64
2021/12/10 05:34:46;;;;;;;7.45;1.90;;;;;;;4.60;93.59;98309.91;8310870;28;20041;-64
2021/12/10 05:38:47;;;;;;;8.35;1.98;;;;;;;4.51;93.90;98302.84;8316700;28;20033;-64
2021/12/10 05:42:47;;;;;;;7.57;1.63;;;;;;;4.42;94.80;98285.06;8308431;28;20037;-64
2021/12/10 05:46:48;;;;;;;5.75;1.92;;;;;;;4.33;95.65;98289.47;8288363;28;20045;-64
2021/12/10 05:50:48;;;;;;;10.27;2.78;;;;;;;4.36;96.18;98277.66;8298796;28;20456;-64
2021/12/10 05:54:50;;;;;;;17.20;4.53;;;;;;;4.44;95.38;98281.22;8299749;28;20098;-64
2021/12/10 05:58:50;;;;;;;8.82;3.00;;;;;;;4.53;93.59;98271.41;8316966;28;20556;-64
2021/12/10 06:02:51;;;;;;;9.13;2.92;;;;;;;4.50;92.53;98259.19;8302643;28;20409;-64
2021/12/10 06:06:51;;;;;;;9.52;3.30;;;;;;;4.53;92.48;98250.00;8317557;28;20045;-64
2021/12/10 06:10:54;;;;;;;13.20;4.22;;;;;;;4.49;93.48;98251.31;8319918;28;20029;-64
2021/12/10 06:14:54;;;;;;;9.02;4.28;;;;;;;4.40;94.44;98241.56;8317634;28;20513;-64
2021/12/10 06:18:56;;;;;;;12.45;4.00;;;;;;;4.40;94.44;98238.88;8290599;28;20108;-64
2021/12/10 06:22:59;;;;;;;13.70;4.63;;;;;;;4.38;94.70;98244.41;8302081;28;20091;-64
2021/12/10 06:27:00;;;;;;;13.67;4.60;;;;;;;4.37;94.75;98232.03;8304991;28;20540;-64
2021/12/10 06:31:00;;;;;;;13.70;4.10;;;;;;;4.43;94.52;98230.56;8303800;28;20637;-64
2021/12/10 06:35:01;;;;;;;9.35;3.70;;;;;;;4.45;94.29;98236.59;8309701;28;20041;-64
2021/12/10 06:39:04;;;;;;;8.82;3.47;;;;;;;4.48;94.15;98228.25;8318438;28;20080;-63
2021/12/10 06:43:05;;;;;;;10.15;3.78;;;;;;;4.45;94.43;98225.91;8319436;28;20129;-64
2021/12/10 06:47:06;;;;;;;9.75;4.13;;;;;;;4.53;93.84;98223.25;8320796;28;20037;-64
2021/12/10 06:51:12;;;;;;;13.45;3.85;;;;;;;4.61;93.35;98223.31;8316088;28;20049;-64
2021/12/10 06:55:14;;;;;;;7.97;3.20;;;;;;;4.60;93.25;98213.59;8325378;28;20103;-64
2021/12/10 06:59:15;;;;;;;10.45;2.95;;;;;;;4.65;93.02;98197.91;8325506;28;20084;-64
2021/12/10 07:03:20;;;;;;;9.77;2.72;;;;;;;4.72;92.53;98210.47;8325310;28;20037;-63
2021/12/10 07:07:20;;;;;;;9.70;2.63;;;;;;;4.81;91.83;98214.00;8324042;28;20344;-63
2021/12/10 07:11:22;;;;;;;13.13;2.67;;;;;;;4.84;91.90;98219.03;8322450;28;20034;-63
2021/12/10 07:15:22;;;;;;;9.38;2.95;;;;;;;4.86;91.60;98227.75;8325069;28;20654;-63
2021/12/10 07:19:26;;;;;;;12.38;2.80;;;;;;;4.89;91.34;98216.75;8325296;28;20419;-63
2021/12/10 07:23:26;;;;;;;8.13;2.33;;;;;;;4.93;90.87;98226.13;8311579;28;20041;-63
2021/12/10 07:27:27;;;;;;;7.72;2.17;;;;;;;5.04;89.90;98221.31;8324548;28;20146;-63
2021/12/10 07:31:28;;;;;;;11.60;2.50;;;;;;;5.05;89.59;98228.34;8323535;28;20121;-63
2021/12/10 07:35:29;;;;;;;13.43;2.90;;;;;;;5.05;89.25;98227.50;8324900;28;20035;-63
2021/12/10 07:39:30;;;;;;;13.82;2.13;;;;;;;5.09;89.05;98224.34;8324329;28;20041;-63
2021/12/10 07:43:31;;;;;;;9.23;2.03;;;;;;;5.10;88.25;98219.84;8324334;28;20095;-63
2021/12/10 07:47:35;;;;;;;15.13;2.88;;;;;;;5.10;88.25;98225.19;8308251;28;20041;-63
2021/12/10 07:51:37;;;;;;;;;;;;;;;5.15;88.08;98212.13;8324077;28;20041;-63
2021/12/10 07:55:39;;;;;;;13.85;3.15;;;;;;;5.18;88.10;98211.81;8324488;28;19917;-63
2021/12/10 07:59:42;;;;;;;19.50;4.68;;;;;;;5.19;87.84;98202.78;8323569;28;20045;-63
2021/12/10 08:03:45;;;;;;;13.75;3.72;;;;;;;5.30;87.16;98210.50;8323894;28;20568;-63
2021/12/10 08:07:46;;;;;;;17.48;6.45;;;;;;;5.30;87.54;98202.47;8323274;28;20045;-63
2021/12/10 08:11:46;;;;;;;14.65;5.32;;;;;;;5.32;87.48;98213.84;8323660;28;20535;-63
2021/12/10 08:15:48;;;;;;;25.02;6.28;;;;;;;5.31;87.30;98206.84;8322852;28;20064;-63
2021/12/10 08:19:48;;;;;;;8.43;2.92;;;;;;;5.35;87.28;98219.75;8321862;28;20364;-63
2021/12/10 08:23:50;;;;;;;15.98;5.43;;;;;;;5.33;87.68;98199.47;8322839;28;20041;-63
2021/12/10 08:27:51;;;;;;;10.98;3.70;;;;;;;5.36;87.36;98209.84;8323013;28;20505;-63
2021/12/10 08:31:53;;;;;;;12.20;4.43;;;;;;;5.37;86.90;98187.44;8322453;28;20485;-63
2021/12/10 08:35:58;;;;;;;13.73;4.10;;;;;;;5.37;87.11;98174.03;8321143;28;20091;-63
2021/12/10 08:39:59;;;;;;;15.63;3.78;;;;;;;5.43;86.93;98176.06;8321853;28;20056;-63
2021/12/10 08:44:01;;;;;;;7.10;2.67;;;;;;;5.47;86.01;98196.16;8318820;28;20033;-63
2021/12/10 08:48:03;;;;;;;9.15;3.00;;;;;;;5.43;86.45;98195.63;8307121;28;20095;-63
2021/12/10 08:52:08;;;;;;;5.35;2.17;;;;;;;5.38;86.38;98199.81;8322176;28;20151;-63
2021/12/10 08:56:09;;;;;;;12.48;3.42;;;;;;;5.42;86.89;98193.09;8322159;28;20493;-63
2021/12/10 09:00:11;;;;;;;14.98;2.28;;;;;;;5.39;86.19;98182.72;8307531;28;20029;-63
2021/12/10 09:04:13;;;;;;;3.97;1.48;;;;;;;5.47;85.18;98183.59;8309328;28;20405;-63
2021/12/10 09:08:14;;;;;;;5.20;1.60;;;;;;;5.48;85.80;98197.81;8319855;28;20030;-63
2021/12/10 09:12:19;;;;;;;9.80;1.90;;;;;;;5.47;85.62;98196.16;8320935;28;20505;-63
2021/12/10 09:16:25;;;;;;;10.40;2.60;;;;;;;5.47;85.63;98190.78;8299916;28;20121;-63
2021/12/10 09:20:31;;;;;;;5.97;2.05;;;;;;;5.42;85.92;98198.47;8321308;28;20044;-63
2021/12/10 09:24:32;;;;;;;10.93;2.45;;;;;;;5.45;86.07;98180.22;8321388;28;20049;-63
2021/12/10 09:28:33;;;;;;;9.00;2.05;;;;;;;5.46;85.50;98178.41;8321063;28;20061;-63
2021/12/10 09:32:33;;;;;;;9.95;2.20;;;;;;;5.42;85.13;98172.53;8320505;28;20037;-63
2021/12/10 09:36:34;;;;;;;7.95;2.50;;;;;;;5.47;84.76;98174.72;8321285;28;20043;-63
2021/12/10 09:40:40;;;;;;;11.07;2.50;;;;;;;5.53;84.86;98177.56;8320489;28;20160;-63
2021/12/10 09:44:42;;;;;;;9.80;2.72;;;;;;;5.55;83.75;98177.41;8320367;28;20207;-63
2021/12/10 09:48:43;;;;;;;8.10;2.80;;;;;;;5.56;84.49;98184.44;8320712;28;20040;-63
2021/12/10 09:52:44;;;;;;;7.63;2.10;;;;;;;5.53;83.91;98176.72;8320615;28;20483;-63
2021/12/10 09:56:51;;;;;;;8.80;2.42;;;;;;;5.51;83.33;98184.09;8319552;28;20250;-63
2021/12/10 10:00:58;;;;;;;7.35;2.63;;;;;;;5.44;83.50;98173.22;8320291;28;20451;-63
2021/12/10 10:04:58;;;;;;;6.97;2.03;;;;;;;5.47;83.08;98180.06;8316943;28;20048;-63
2021/12/10 10:08:59;;;;;;;10.30;2.45;;;;;;;5.42;83.50;98187.75;8318422;28;20489;-63
2021/12/10 10:13:00;;;;;;;10.40;2.58;;;;;;;5.49;83.76;98183.44;8320052;28;20532;-63
2021/12/10 10:17:01;;;;;;;13.23;2.72;;;;;;;5.46;83.31;98173.03;8319879;28;20107;-64
2021/12/10 10:21:08;;;;;;;8.50;2.58;;;;;;;5.51;82.63;98165.31;8321428;28;20072;-64
2021/12/10 10:25:11;;;;;;;4.95;2.20;;;;;;;5.52;82.06;98167.03;8325080;28;20122;-64
2021/12/10 10:29:15;;;;;;;7.90;2.40;;;;;;;5.53;83.28;98160.66;8325787;28;20413;-63
2021/12/10 10:33:16;;;;;;;5.18;2.30;;;;;;;5.50;83.17;98158.31;8324779;28;20100;-63
2021/12/10 10:37:17;;;;;;;9.68;2.67;;;;;;;5.58;83.05;98150.28;8326547;28;20271;-63
2021/12/10 10:41:21;;;;;;;10.65;2.83;;;;;;;5.49;82.39;98135.22;8326184;28;20057;-63
2021/12/10 10:45:27;;;;;;;8.38;2.90;;;;;;;5.45;82.52;98144.56;8306325;28;20169;-63
2021/12/10 10:49:40;;;;;;;8.88;3.13;;;;;;;5.50;81.77;98152.94;8315068;28;20036;-66
2021/12/10 10:53:47;;;;;;;8.90;3.10;;;;;;;5.55;81.62;98145.25;8325600;28;20525;-64
2021/12/10 10:57:54;;;;;;;6.50;2.75;;;;;;;5.64;81.85;98134.34;8325228;28;20080;-64
2021/12/10 11:02:05;;;;;;;8.73;2.78;;;;;;;5.61;82.06;98139.19;8323779;28;20321;-64
2021/12/10 11:06:11;;;;;;;7.75;3.03;;;;;;;5.67;81.54;98138.53;8324697;28;20041;-64
2021/12/10 11:10:13;;;;;;;7.90;2.40;;;;;;;5.67;81.91;98139.38;8325104;28;20034;-64
2021/12/10 11:18:55;;;;;;;9.18;2.47;;;;;;;5.70;81.45;98138.19;8416785;27;20528;-63
2021/12/10 11:22:59;;;;;;;10.85;3.90;;;;;;;5.72;82.34;98136.19;8403998;28;20052;-63
2021/12/10 11:27:05;;;;;;;8.23;3.05;;;;;;;5.74;82.23;98134.19;8412601;28;20036;-63
2021/12/10 11:31:13;;;;;;;12.85;3.20;;;;;;;5.81;81.43;98135.19;8422093;27;20495;-63
2021/12/10 11:39:48;;;;;;;7.10;2.47;;;;;;;5.94;80.61;98135.53;8405719;27;20402;-63
2021/12/10 11:44:17;;;;;;;10.18;3.00;;;;;;;5.94;81.32;98141.72;8405571;28;20072;-64
2021/12/10 11:48:25;;;;;;;5.63;2.28;;;;;;;6.03;80.37;98139.88;8379868;28;20532;-64
2021/12/10 11:52:28;;;;;;;6.47;2.13;;;;;;;6.03;80.09;98137.19;8374747;28;20102;-64
2021/12/10 11:56:37;;;;;;;5.53;2.38;;;;;;;5.99;80.56;98147.44;8376040;28;20036;-64
2021/12/10 12:00:40;;;;;;;5.57;2.53;;;;;;;6.00;81.56;98151.78;8377774;28;20041;-64
2021/12/10 12:04:45;;;;;;;9.57;2.42;;;;;;;6.04;81.02;98157.66;8379338;28;20040;-64
2021/12/10 12:08:45;;;;;;;3.25;1.20;;;;;;;6.13;81.02;98156.59;8379867;28;20417;-64
2021/12/10 12:12:53;;;;;;;8.70;1.80;;;;;;;5.84;83.27;98172.41;8376840;28;20032;-64
2021/12/10 12:16:53;;;;;;;7.25;2.92;;;;;;;5.76;84.08;98169.69;8375732;28;20333;-64
2021/12/10 12:21:37;;;;;;;11.25;2.75;;;;;;;5.63;86.01;98164.00;8378593;28;20417;-64
2021/12/10 12:25:30;;;;;;;12.23;2.10;;;;;;;5.64;87.13;98145.06;8397863;28;20045;-64
2021/12/10 12:29:56;;;;;;;10.55;2.53;;;;;;;5.57;87.93;98165.50;8380299;28;20036;-64
2021/12/10 12:38:23;;;;;;;9.43;2.33;;;;;;;5.57;87.89;98165.50;8313030;28;20464;-64
2021/12/10 12:42:30;;;;;;;10.02;2.10;;;;;;;5.61;88.30;98176.72;8313744;28;20421;-64
2021/12/10 12:46:30;;;;;;;6.88;2.20;;;;;;;5.55;88.53;98161.34;8315065;28;20033;-64
2021/12/10 12:50:34;;;;;;;6.47;2.20;;;;;;;5.56;89.23;98157.63;8315316;28;20038;-64
2021/12/10 12:54:40;;;;;;;8.60;2.38;;;;;;;5.51;90.22;98176.03;8315099;28;20124;-64
2021/12/10 12:58:46;;;;;;;5.50;2.50;;;;;;;5.40;90.38;98179.06;8314873;28;20052;-64
2021/12/10 13:02:53;;;;;;;4.82;2.28;;;;;;;5.47;92.33;98188.09;8302812;28;20045;-64
2021/12/10 13:06:58;;;;;;;7.53;2.08;;;;;;;5.47;90.98;98202.34;8307497;28;20152;-64
2021/12/10 13:11:15;;;;;;;5.93;2.80;;;;;;;5.39;91.93;98204.16;8300501;28;20045;-64
2021/12/10 13:15:20;;;;;;;11.13;3.75;;;;;;;5.27;92.80;98205.47;8318332;28;20045;-64
2021/12/10 13:19:24;;;;;;;6.05;3.88;;;;;;;5.17;94.06;98210.13;8311471;28;20044;-64
2021/12/10 13:23:27;;;;;;;13.25;4.15;;;;;;;5.19;94.01;98219.66;8312981;28;20037;-64
2021/12/10 13:27:27;;;;;;;12.50;3.92;;;;;;;5.22;95.55;98223.88;8296005;28;20042;-64
2021/12/10 13:31:28;;;;;;;9.90;3.15;;;;;;;5.20;95.18;98223.19;8312266;28;20037;-64
2021/12/10 13:35:30;;;;;;;8.75;3.65;;;;;;;5.15;94.73;98220.16;8311665;28;20040;-64
2021/12/10 13:39:31;;;;;;;6.55;3.25;;;;;;;5.15;94.76;98229.03;8290538;28;20433;-64
2021/12/10 13:43:33;;;;;;;9.55;3.60;;;;;;;5.11;94.45;98240.25;8279854;28;20041;-64
2021/12/10 13:47:37;;;;;;;12.02;3.55;;;;;;;5.15;94.06;98239.75;8281971;28;20041;-64
2021/12/10 13:51:44;;;;;;;8.95;4.40;;;;;;;5.18;94.10;98243.94;8279180;28;20070;-64
2021/12/10 13:55:56;;;;;;;8.30;3.60;;;;;;;5.19;92.36;98253.66;8272369;28;20119;-64
2021/12/10 14:00:00;;;;;;;10.35;4.30;;;;;;;5.23;92.42;98257.69;8288111;28;20053;-64
2021/12/10 14:04:22;;;;;;;7.77;3.37;;;;;;;5.24;91.61;98262.03;8276076;28;20053;-64
2021/12/10 14:08:23;;;;;;;13.23;3.88;;;;;;;5.22;92.56;98264.06;8264404;28;20769;-64
2021/12/10 14:16:54;;;;;;;14.80;4.47;;;;;;;5.20;92.30;98274.09;8403459;27;20612;-64
2021/12/10 14:25:36;;;;;;;7.38;4.28;;;;;;;5.21;92.28;98281.94;8413993;27;20961;-64
2021/12/10 14:29:37;;;;;;;9.30;4.70;;;;;;;5.20;92.49;98295.50;8356027;28;20154;-64
2021/12/10 14:33:41;;;;;;;7.18;4.25;;;;;;;5.23;91.37;98293.34;8373259;28;20134;-64
2021/12/10 14:37:57;;;;;;;6.40;4.20;;;;;;;5.23;92.22;98296.03;8402068;28;20147;-64
2021/12/10 14:41:57;;;;;;;9.45;4.25;;;;;;;5.21;91.50;98308.72;8396104;28;20054;-64
2021/12/10 14:46:03;;;;;;;8.00;4.22;;;;;;;5.25;92.13;98319.97;8372328;28;20040;-64
2021/12/10 14:50:07;;;;;;;10.38;3.80;;;;;;;5.32;92.41;98318.31;8359041;28;20054;-63
2021/12/10 14:54:15;;;;;;;10.65;4.20;;;;;;;5.49;91.38;98322.75;8390100;28;20032;-62
2021/12/10 14:58:18;;;;;;;7.07;3.53;;;;;;;5.32;90.51;98337.91;8367717;28;20745;-66
2021/12/10 15:02:27;;;;;;;13.48;4.43;;;;;;;5.25;90.67;98338.72;8371652;28;20473;-66
2021/12/10 15:06:28;;;;;;;9.10;4.07;;;;;;;5.22;91.27;98347.06;8373066;28;20040;-66
2021/12/10 15:10:48;;;;;;;6.88;3.60;;;;;;;5.24;91.50;98350.41;8409775;28;20044;-66
2021/12/10 15:14:59;;;;;;;10.30;3.40;;;;;;;5.24;91.10;98361.13;8406504;28;20037;-66
2021/12/10 15:23:19;;;;;;;8.70;3.80;;;;;;;5.22;90.65;98369.31;8348372;27;20489;-66
2021/12/10 15:27:25;;;;;;;7.40;4.57;;;;;;;5.18;91.16;98373.31;8354856;28;20797;-66
2021/12/10 15:31:34;;;;;;;9.75;4.70;;;;;;;5.18;91.54;98384.03;8354115;28;20090;-66
2021/12/10 15:35:45;;;;;;;9.55;5.88;;;;;;;5.13;90.72;98385.53;8364052;28;20039;-65
2021/12/10 15:39:49;;;;;;;12.32;5.90;;;;;;;5.16;91.16;98390.56;8369814;28;20323;-66
2021/12/10 15:43:55;;;;;;;10.07;4.30;;;;;;;5.17;90.90;98397.59;8379962;28;20408;-66
2021/12/10 15:47:56;;;;;;;7.78;4.10;;;;;;;5.07;91.43;98402.22;8377575;28;20032;-66
2021/12/10 15:52:02;;;;;;;6.80;4.22;;;;;;;5.06;91.51;98411.25;8375763;28;20597;-66
2021/12/10 15:56:08;;;;;;;8.32;4.60;;;;;;;4.99;91.73;98404.84;8349344;28;20313;-66
2021/12/10 16:00:18;;;;;;;9.57;5.15;;;;;;;4.93;92.47;98426.88;8371430;28;20076;-66
2021/12/10 16:08:41;;;;;;;8.38;4.70;;;;;;;4.86;93.17;98436.53;8394374;27;20611;-66
2021/12/10 16:12:44;;;;;;;13.23;6.75;;;;;;;4.86;94.08;98447.25;8388565;28;20032;-66
2021/12/10 16:16:51;;;;;;;12.87;5.70;;;;;;;4.80;94.95;98458.56;8384744;28;20036;-63
2021/12/10 16:21:11;;;;;;;14.55;6.07;;;;;;;4.71;96.48;98464.84;8389897;28;20328;-63
2021/12/10 16:25:12;;;;;;;20.25;7.28;;;;;;;4.66;97.72;98457.28;8369332;28;20048;-63
2021/12/10 16:29:18;;;;;;;15.43;6.70;;;;;;;4.64;97.60;98474.50;8361358;28;20116;-63
2021/12/10 16:33:20;;;;;;;13.48;7.07;;;;;;;4.67;98.28;98484.88;8378891;28;20055;-63
2021/12/10 16:37:22;;;;;;;12.10;6.40;;;;;;;4.62;98.56;98495.19;8373774;28;20041;-63
2021/12/10 16:41:28;;;;;;;17.35;7.40;;;;;;;4.60;98.88;98510.56;8391775;28;20108;-64
2021/12/10 16:45:32;;;;;;;19.23;8.38;;;;;;;4.60;99.89;98521.28;8362902;28;20044;-64
2021/12/10 16:49:35;;;;;;;18.55;7.97;;;;;;;4.46;100.00;98522.66;8372771;28;20504;-64
2021/12/10 16:53:40;;;;;;;17.00;8.98;;;;;;;4.37;100.00;98541.41;8387997;28;20344;-64
2021/12/10 16:57:42;;;;;;;15.80;9.05;;;;;;;4.36;100.00;98550.44;8395220;28;20037;-64
2021/12/10 17:01:49;;;;;;;23.02;9.70;;;;;;;4.30;100.00;98551.03;8388408;28;20112;-64
2021/12/10 17:05:53;;;;;;;21.63;10.27;;;;;;;4.28;100.00;98558.34;8384271;28;20040;-64
2021/12/10 17:10:02;;;;;;;16.40;9.90;;;;;;;4.26;100.00;98568.34;8388635;28;20047;-64
2021/12/10 17:14:09;;;;;;;25.70;11.90;;;;;;;4.25;100.00;98578.22;8377194;28;20069;-64
2021/12/10 17:18:15;;;;;;;19.48;10.85;;;;;;;4.24;100.00;98586.41;8367323;28;20119;-64
2021/12/10 17:22:21;;;;;;;21.00;11.00;;;;;;;4.25;100.00;98596.09;8365413;28;20039;-66
2021/12/10 17:26:26;;;;;;;18.85;11.85;;;;;;;4.22;100.00;98612.44;8359813;28;20087;-66
2021/12/10 17:30:35;;;;;;;21.75;11.77;;;;;;;4.21;100.00;98616.94;8353532;28;20040;-66
2021/12/10 17:34:44;;;;;;;22.65;12.13;;;;;;;4.20;100.00;98625.94;8353797;28;20087;-65
2021/12/10 17:38:46;;;;;;;28.00;12.90;;;;;;;4.19;100.00;98634.13;8350726;28;20071;-65
2021/12/10 17:42:50;;;;;;;26.10;13.38;;;;;;;4.15;100.00;98638.06;8346311;28;20045;-66
2021/12/10 17:46:58;;;;;;;24.42;14.95;;;;;;;4.16;100.00;98639.75;8328701;28;20124;-66
2021/12/10 17:51:04;;;;;;;25.13;14.55;;;;;;;4.16;100.00;98653.13;8340862;28;20045;-64
2021/12/10 17:55:09;;;;;;;24.98;14.63;;;;;;;4.13;100.00;98653.41;8361626;28;20040;-63
2021/12/10 17:59:13;;;;;;;27.17;15.32;;;;;;;4.14;100.00;98669.31;8363667;28;20187;-65
2021/12/10 18:03:24;;;;;;;33.20;15.93;;;;;;;4.14;100.00;98668.50;8348223;28;20076;-65
2021/12/10 18:07:28;;;;;;;26.08;15.63;;;;;;;4.14;100.00;98687.19;8344840;28;20362;-65
2021/12/10 18:11:28;;;;;;;24.00;15.65;;;;;;;4.17;100.00;98700.28;8357014;28;20223;-65
2021/12/10 18:15:33;;;;;;;28.85;16.40;;;;;;;4.15;100.00;98708.44;8332659;28;20095;-65
2021/12/10 18:19:34;;;;;;;31.63;15.68;;;;;;;4.17;100.00;98710.97;8334896;28;20038;-65
2021/12/10 18:23:39;;;;;;;28.55;16.33;;;;;;;4.14;100.00;98727.31;8348497;28;20116;-65
2021/12/10 18:27:40;;;;;;;38.45;16.45;;;;;;;4.21;100.00;98725.75;8340991;28;20037;-65
2021/12/10 18:31:45;;;;;;;33.80;17.08;;;;;;;4.24;100.00;98738.81;8353817;28;20508;-65
2021/12/10 18:35:49;;;;;;;32.65;16.13;;;;;;;4.27;100.00;98754.56;8346473;28;20032;-65
2021/12/10 18:39:57;;;;;;;29.23;17.95;;;;;;;4.22;100.00;98764.84;8362702;28;20091;-65
2021/12/10 18:43:57;;;;;;;35.40;17.92;;;;;;;4.25;100.00;98772.59;8362469;28;20435;-65
2021/12/10 18:47:59;;;;;;;32.75;17.55;;;;;;;4.22;100.00;98775.53;8362500;28;20141;-65
2021/12/10 18:52:04;;;;;;;31.92;18.80;;;;;;;4.17;100.00;98785.84;8355722;28;20048;-65
2021/12/10 18:56:09;;;;;;;38.90;19.55;;;;;;;4.15;100.00;98793.16;8361473;28;20040;-65
2021/12/10 19:00:17;;;;;;;38.25;20.23;;;;;;;4.23;100.00;98801.28;8362556;28;20040;-65
2021/12/10 19:04:27;;;;;;;36.78;21.35;;;;;;;4.24;100.00;98803.81;8346004;28;20050;-65
2021/12/10 19:08:37;;;;;;;41.20;21.25;;;;;;;4.15;100.00;98814.53;8329910;28;20494;-65
2021/12/10 19:12:44;;;;;;;41.97;22.63;;;;;;;4.14;100.00;98823.56;8344033;28;20056;-65
2021/12/10 19:16:49;;;;;;;48.67;25.83;;;;;;;4.16;100.00;98838.47;8346780;28;20044;-65
2021/12/10 19:21:15;;;;;;;60.97;29.52;;;;;;;4.16;100.00;98850.97;8352729;28;20120;-65
2021/12/10 19:25:32;;;;;;;50.60;27.58;;;;;;;4.17;100.00;98858.03;8337415;28;20418;-65
2021/12/10 19:29:34;;;;;;;40.38;21.60;;;;;;;4.20;100.00;98876.47;8349683;28;20040;-65
2021/12/10 19:33:45;;;;;;;38.55;19.83;;;;;;;4.14;100.00;98882.38;8342436;28;20033;-65
2021/12/10 19:37:50;;;;;;;53.03;26.65;;;;;;;4.12;100.00;98895.03;8341732;28;20843;-65
2021/12/10 19:41:57;;;;;;;39.42;21.25;;;;;;;4.07;100.00;98893.63;8356714;28;20040;-65
2021/12/10 19:46:06;;;;;;;44.15;23.10;;;;;;;4.08;100.00;98911.34;8353474;28;20098;-65
2021/12/10 19:50:22;;;;;;;42.15;21.40;;;;;;;4.14;100.00;98919.81;8357736;28;20041;-65